sensor_id;sensor_type;location;lat;lon;timestamp;P1;durP1;ratioP1;P2;durP2;ratioP2
11837;SDS011;5978;51.020;6.764;2022-09-27T00:00:22;3.30;;;2.53;;
11837;SDS011;5978;51.020;6.764;2022-09-27T00:02:47;3.47;;;2.60;;
11837;SDS011;5978;51.020;6.764;2022-09-27T00:05:13;11.30;;;2.80;;
11837;SDS011;5978;51.020;6.764;2022-09-27T00:07:39;4.67;;;3.03;;
11837;SDS011;5978;51.020;6.764;2022-09-27T00:10:05;5.80;;;3.27;;
11837;SDS011;5978;51.020;6.764;2022-09-27T00:12:32;6.90;;;2.87;;
11837;SDS011;5978;51.020;6.764;2022-09-27T00:14:58;3.40;;;3.10;;
11837;SDS011;5978;51.020;6.764;2022-09-27T00:17:25;7.83;;;3.80;;
11837;SDS011;5978;51.020;6.764;2022-09-27T00:19:51;7.97;;;4.10;;
11837;SDS011;5978;51.020;6.764;2022-09-27T00:22:17;6.57;;;4.20;;
11837;SDS011;5978;51.020;6.764;2022-09-27T00:24:42;6.57;;;3.67;;
11837;SDS011;5978;51.020;6.764;2022-09-27T00:27:08;7.07;;;3.50;;
11837;SDS011;5978;51.020;6.764;2022-09-27T00:29:34;6.77;;;3.87;;
11837;SDS011;5978;51.020;6.764;2022-09-27T00:31:59;7.90;;;3.80;;
11837;SDS011;5978;51.020;6.764;2022-09-27T00:34:25;7.73;;;4.20;;
11837;SDS011;5978;51.020;6.764;2022-09-27T00:36:51;9.53;;;5.03;;
11837;SDS011;5978;51.020;6.764;2022-09-27T00:39:17;11.63;;;5.27;;
11837;SDS011;5978;51.020;6.764;2022-09-27T00:41:43;6.93;;;4.60;;
11837;SDS011;5978;51.020;6.764;2022-09-27T00:46:53;7.77;;;4.70;;
11837;SDS011;5978;51.020;6.764;2022-09-27T00:49:29;8.30;;;4.53;;
11837;SDS011;5978;51.020;6.764;2022-09-27T00:52:22;12.30;;;4.93;;
11837;SDS011;5978;51.020;6.764;2022-09-27T00:54:52;9.73;;;3.70;;
11837;SDS011;5978;51.020;6.764;2022-09-27T00:57:23;5.33;;;3.63;;
11837;SDS011;5978;51.020;6.764;2022-09-27T01:02:41;10.73;;;3.90;;
11837;SDS011;5978;51.020;6.764;2022-09-27T01:05:10;3.43;;;3.10;;
11837;SDS011;5978;51.020;6.764;2022-09-27T01:07:38;5.17;;;2.77;;
11837;SDS011;5978;51.020;6.764;2022-09-27T01:10:04;2.77;;;2.30;;
11837;SDS011;5978;51.020;6.764;2022-09-27T01:32:09;5.47;;;3.73;;
11837;SDS011;5978;51.020;6.764;2022-09-27T01:34:43;4.57;;;4.10;;
11837;SDS011;5978;51.020;6.764;2022-09-27T01:37:24;4.93;;;3.07;;
11837;SDS011;5978;51.020;6.764;2022-09-27T01:40:01;5.20;;;4.00;;
11837;SDS011;5978;51.020;6.764;2022-09-27T01:45:32;10.40;;;4.57;;
11837;SDS011;5978;51.020;6.764;2022-09-27T01:48:26;12.50;;;5.23;;
11837;SDS011;5978;51.020;6.764;2022-09-27T01:51:07;7.30;;;4.63;;
11837;SDS011;5978;51.020;6.764;2022-09-27T01:53:43;7.30;;;5.43;;
11837;SDS011;5978;51.020;6.764;2022-09-27T01:56:14;7.23;;;5.70;;
11837;SDS011;5978;51.020;6.764;2022-09-27T01:58:45;9.83;;;6.50;;
11837;SDS011;5978;51.020;6.764;2022-09-27T02:01:19;8.00;;;5.50;;
11837;SDS011;5978;51.020;6.764;2022-09-27T02:03:48;6.83;;;4.97;;
11837;SDS011;5978;51.020;6.764;2022-09-27T02:06:20;8.10;;;6.00;;
11837;SDS011;5978;51.020;6.764;2022-09-27T02:08:51;7.30;;;5.15;;
11837;SDS011;5978;51.020;6.764;2022-09-27T02:11:25;24.07;;;6.20;;
11837;SDS011;5978;51.020;6.764;2022-09-27T02:16:44;6.32;;;5.00;;
11837;SDS011;5978;51.020;6.764;2022-09-27T02:24:57;5.30;;;4.77;;
11837;SDS011;5978;51.020;6.764;2022-09-27T02:30:10;6.33;;;4.03;;
11837;SDS011;5978;51.020;6.764;2022-09-27T02:32:38;6.63;;;4.63;;
11837;SDS011;5978;51.020;6.764;2022-09-27T02:35:09;5.90;;;4.53;;
11837;SDS011;5978;51.020;6.764;2022-09-27T02:37:37;4.63;;;4.00;;
11837;SDS011;5978;51.020;6.764;2022-09-27T02:40:03;4.37;;;3.87;;
11837;SDS011;5978;51.020;6.764;2022-09-27T02:42:29;8.05;;;3.78;;
11837;SDS011;5978;51.020;6.764;2022-09-27T02:44:56;4.70;;;3.83;;
11837;SDS011;5978;51.020;6.764;2022-09-27T02:47:39;7.20;;;4.03;;
11837;SDS011;5978;51.020;6.764;2022-09-27T02:50:22;4.03;;;3.43;;
11837;SDS011;5978;51.020;6.764;2022-09-27T02:53:09;5.07;;;3.00;;
11837;SDS011;5978;51.020;6.764;2022-09-27T02:55:52;5.87;;;3.43;;
11837;SDS011;5978;51.020;6.764;2022-09-27T03:06:47;6.10;;;2.53;;
11837;SDS011;5978;51.020;6.764;2022-09-27T03:09:22;4.60;;;3.67;;
11837;SDS011;5978;51.020;6.764;2022-09-27T03:11:52;4.25;;;2.17;;
11837;SDS011;5978;51.020;6.764;2022-09-27T03:14:18;4.57;;;2.70;;
11837;SDS011;5978;51.020;6.764;2022-09-27T03:16:44;5.50;;;2.27;;
11837;SDS011;5978;51.020;6.764;2022-09-27T03:19:10;6.43;;;2.90;;
11837;SDS011;5978;51.020;6.764;2022-09-27T03:21:35;4.70;;;3.07;;
11837;SDS011;5978;51.020;6.764;2022-09-27T03:24:01;4.57;;;3.10;;
11837;SDS011;5978;51.020;6.764;2022-09-27T03:26:27;2.20;;;1.88;;
11837;SDS011;5978;51.020;6.764;2022-09-27T03:28:54;3.33;;;1.77;;
11837;SDS011;5978;51.020;6.764;2022-09-27T03:31:21;7.00;;;2.00;;
11837;SDS011;5978;51.020;6.764;2022-09-27T03:33:47;3.42;;;2.00;;
11837;SDS011;5978;51.020;6.764;2022-09-27T03:36:13;3.57;;;2.40;;
11837;SDS011;5978;51.020;6.764;2022-09-27T03:38:38;2.90;;;2.33;;
11837;SDS011;5978;51.020;6.764;2022-09-27T03:41:04;2.20;;;2.00;;
11837;SDS011;5978;51.020;6.764;2022-09-27T03:43:30;4.90;;;2.50;;
11837;SDS011;5978;51.020;6.764;2022-09-27T03:45:55;3.13;;;2.20;;
11837;SDS011;5978;51.020;6.764;2022-09-27T03:48:21;4.87;;;2.67;;
11837;SDS011;5978;51.020;6.764;2022-09-27T03:50:47;3.67;;;3.10;;
11837;SDS011;5978;51.020;6.764;2022-09-27T03:53:15;3.08;;;2.60;;
11837;SDS011;5978;51.020;6.764;2022-09-27T03:55:40;3.60;;;2.67;;
11837;SDS011;5978;51.020;6.764;2022-09-27T03:58:09;4.90;;;2.45;;
11837;SDS011;5978;51.020;6.764;2022-09-27T04:00:34;5.30;;;2.70;;
11837;SDS011;5978;51.020;6.764;2022-09-27T04:03:01;4.22;;;2.75;;
11837;SDS011;5978;51.020;6.764;2022-09-27T04:05:27;7.17;;;2.80;;
11837;SDS011;5978;51.020;6.764;2022-09-27T04:07:53;4.20;;;2.40;;
11837;SDS011;5978;51.020;6.764;2022-09-27T04:10:18;6.60;;;2.80;;
11837;SDS011;5978;51.020;6.764;2022-09-27T04:12:44;2.70;;;2.50;;
11837;SDS011;5978;51.020;6.764;2022-09-27T04:15:10;5.67;;;2.60;;
11837;SDS011;5978;51.020;6.764;2022-09-27T04:17:36;7.43;;;3.17;;
11837;SDS011;5978;51.020;6.764;2022-09-27T04:20:05;8.13;;;3.38;;
11837;SDS011;5978;51.020;6.764;2022-09-27T04:22:31;4.07;;;2.95;;
11837;SDS011;5978;51.020;6.764;2022-09-27T04:24:56;3.30;;;2.60;;
11837;SDS011;5978;51.020;6.764;2022-09-27T04:27:22;5.13;;;2.67;;
11837;SDS011;5978;51.020;6.764;2022-09-27T04:29:48;3.17;;;2.27;;
11837;SDS011;5978;51.020;6.764;2022-09-27T04:32:13;5.03;;;2.57;;
11837;SDS011;5978;51.020;6.764;2022-09-27T04:34:39;2.93;;;2.37;;
11837;SDS011;5978;51.020;6.764;2022-09-27T04:37:23;5.15;;;3.33;;
11837;SDS011;5978;51.020;6.764;2022-09-27T04:39:51;12.70;;;2.40;;
11837;SDS011;5978;51.020;6.764;2022-09-27T04:42:17;4.27;;;2.07;;
11837;SDS011;5978;51.020;6.764;2022-09-27T04:44:48;2.92;;;2.20;;
11837;SDS011;5978;51.020;6.764;2022-09-27T04:47:23;3.63;;;2.92;;
11837;SDS011;5978;51.020;6.764;2022-09-27T04:52:43;5.32;;;3.20;;
11837;SDS011;5978;51.020;6.764;2022-09-27T04:55:09;7.32;;;3.40;;
11837;SDS011;5978;51.020;6.764;2022-09-27T04:57:35;5.72;;;2.95;;
11837;SDS011;5978;51.020;6.764;2022-09-27T05:00:01;5.40;;;3.07;;
11837;SDS011;5978;51.020;6.764;2022-09-27T05:02:28;6.07;;;2.65;;
11837;SDS011;5978;51.020;6.764;2022-09-27T05:04:54;5.17;;;2.57;;
11837;SDS011;5978;51.020;6.764;2022-09-27T05:07:26;3.28;;;2.80;;
11837;SDS011;5978;51.020;6.764;2022-09-27T05:09:52;2.55;;;2.33;;
11837;SDS011;5978;51.020;6.764;2022-09-27T05:12:19;3.95;;;2.08;;
11837;SDS011;5978;51.020;6.764;2022-09-27T05:14:45;3.17;;;2.47;;
11837;SDS011;5978;51.020;6.764;2022-09-27T05:17:11;2.20;;;1.90;;
11837;SDS011;5978;51.020;6.764;2022-09-27T05:19:37;2.40;;;2.20;;
11837;SDS011;5978;51.020;6.764;2022-09-27T05:22:04;7.43;;;1.88;;
11837;SDS011;5978;51.020;6.764;2022-09-27T05:24:30;5.28;;;1.95;;
11837;SDS011;5978;51.020;6.764;2022-09-27T05:26:57;5.72;;;2.70;;
11837;SDS011;5978;51.020;6.764;2022-09-27T05:29:26;2.30;;;1.95;;
11837;SDS011;5978;51.020;6.764;2022-09-27T05:31:52;4.28;;;2.20;;
11837;SDS011;5978;51.020;6.764;2022-09-27T05:34:17;2.63;;;2.00;;
11837;SDS011;5978;51.020;6.764;2022-09-27T05:36:46;5.25;;;2.22;;
11837;SDS011;5978;51.020;6.764;2022-09-27T05:39:12;3.65;;;2.45;;
11837;SDS011;5978;51.020;6.764;2022-09-27T05:44:41;3.88;;;2.33;;
11837;SDS011;5978;51.020;6.764;2022-09-27T05:47:11;5.93;;;2.38;;
11837;SDS011;5978;51.020;6.764;2022-09-27T05:49:36;4.00;;;2.30;;
11837;SDS011;5978;51.020;6.764;2022-09-27T05:52:04;4.18;;;2.85;;
11837;SDS011;5978;51.020;6.764;2022-09-27T05:54:30;3.97;;;2.37;;
11837;SDS011;5978;51.020;6.764;2022-09-27T05:56:56;4.15;;;3.05;;
11837;SDS011;5978;51.020;6.764;2022-09-27T05:59:26;4.32;;;2.80;;
11837;SDS011;5978;51.020;6.764;2022-09-27T06:01:52;10.02;;;3.30;;
11837;SDS011;5978;51.020;6.764;2022-09-27T06:04:20;6.85;;;3.33;;
11837;SDS011;5978;51.020;6.764;2022-09-27T06:06:46;6.05;;;3.00;;
11837;SDS011;5978;51.020;6.764;2022-09-27T06:09:12;5.97;;;2.95;;
11837;SDS011;5978;51.020;6.764;2022-09-27T06:11:40;4.88;;;3.15;;
11837;SDS011;5978;51.020;6.764;2022-09-27T06:14:09;3.85;;;2.80;;
11837;SDS011;5978;51.020;6.764;2022-09-27T06:16:35;5.45;;;3.42;;
11837;SDS011;5978;51.020;6.764;2022-09-27T06:19:01;3.87;;;3.27;;
11837;SDS011;5978;51.020;6.764;2022-09-27T06:21:28;5.90;;;3.65;;
11837;SDS011;5978;51.020;6.764;2022-09-27T06:24:13;4.70;;;3.30;;
11837;SDS011;5978;51.020;6.764;2022-09-27T06:26:38;3.92;;;2.92;;
11837;SDS011;5978;51.020;6.764;2022-09-27T06:29:04;4.30;;;2.70;;
11837;SDS011;5978;51.020;6.764;2022-09-27T06:31:30;4.20;;;2.80;;
11837;SDS011;5978;51.020;6.764;2022-09-27T06:33:56;4.85;;;2.83;;
11837;SDS011;5978;51.020;6.764;2022-09-27T06:36:21;2.80;;;2.60;;
11837;SDS011;5978;51.020;6.764;2022-09-27T06:38:47;9.87;;;2.80;;
11837;SDS011;5978;51.020;6.764;2022-09-27T06:41:13;5.88;;;2.47;;
11837;SDS011;5978;51.020;6.764;2022-09-27T06:43:40;2.75;;;2.00;;
11837;SDS011;5978;51.020;6.764;2022-09-27T06:46:06;2.60;;;2.00;;
11837;SDS011;5978;51.020;6.764;2022-09-27T06:48:32;2.60;;;1.80;;
11837;SDS011;5978;51.020;6.764;2022-09-27T06:50:58;1.70;;;1.30;;
11837;SDS011;5978;51.020;6.764;2022-09-27T06:53:24;4.40;;;1.53;;
11837;SDS011;5978;51.020;6.764;2022-09-27T06:55:50;2.60;;;1.70;;
11837;SDS011;5978;51.020;6.764;2022-09-27T06:58:16;6.10;;;2.70;;
11837;SDS011;5978;51.020;6.764;2022-09-27T07:01:01;1.45;;;1.15;;
11837;SDS011;5978;51.020;6.764;2022-09-27T07:03:27;2.78;;;1.10;;
11837;SDS011;5978;51.020;6.764;2022-09-27T07:06:03;1.65;;;1.33;;
11837;SDS011;5978;51.020;6.764;2022-09-27T07:08:30;1.80;;;1.10;;
11837;SDS011;5978;51.020;6.764;2022-09-27T07:11:02;4.47;;;2.10;;
11837;SDS011;5978;51.020;6.764;2022-09-27T07:16:41;3.53;;;1.30;;
11837;SDS011;5978;51.020;6.764;2022-09-27T07:19:07;1.20;;;1.10;;
11837;SDS011;5978;51.020;6.764;2022-09-27T07:21:35;13.57;;;1.23;;
11837;SDS011;5978;51.020;6.764;2022-09-27T07:24:01;1.77;;;1.08;;
11837;SDS011;5978;51.020;6.764;2022-09-27T07:26:27;2.40;;;1.10;;
11837;SDS011;5978;51.020;6.764;2022-09-27T07:28:53;1.20;;;1.10;;
11837;SDS011;5978;51.020;6.764;2022-09-27T07:31:18;1.27;;;1.17;;
11837;SDS011;5978;51.020;6.764;2022-09-27T07:33:44;1.37;;;1.00;;
11837;SDS011;5978;51.020;6.764;2022-09-27T07:36:10;2.27;;;1.00;;
11837;SDS011;5978;51.020;6.764;2022-09-27T07:38:37;1.80;;;1.10;;
11837;SDS011;5978;51.020;6.764;2022-09-27T07:41:09;2.50;;;1.47;;
11837;SDS011;5978;51.020;6.764;2022-09-27T07:43:38;2.75;;;1.10;;
11837;SDS011;5978;51.020;6.764;2022-09-27T07:46:09;2.15;;;1.15;;
11837;SDS011;5978;51.020;6.764;2022-09-27T07:48:35;2.47;;;1.15;;
11837;SDS011;5978;51.020;6.764;2022-09-27T07:51:00;8.87;;;2.40;;
11837;SDS011;5978;51.020;6.764;2022-09-27T07:53:26;1.93;;;1.13;;
11837;SDS011;5978;51.020;6.764;2022-09-27T07:55:52;1.83;;;1.20;;
11837;SDS011;5978;51.020;6.764;2022-09-27T07:58:18;2.10;;;1.83;;
11837;SDS011;5978;51.020;6.764;2022-09-27T08:00:44;1.63;;;1.30;;
11837;SDS011;5978;51.020;6.764;2022-09-27T08:03:11;1.67;;;1.57;;
11837;SDS011;5978;51.020;6.764;2022-09-27T08:05:45;3.33;;;1.35;;
11837;SDS011;5978;51.020;6.764;2022-09-27T08:08:12;2.30;;;1.00;;
11837;SDS011;5978;51.020;6.764;2022-09-27T08:10:38;2.95;;;1.50;;
11837;SDS011;5978;51.020;6.764;2022-09-27T08:13:08;1.95;;;1.30;;
11837;SDS011;5978;51.020;6.764;2022-09-27T08:15:34;3.83;;;1.67;;
11837;SDS011;5978;51.020;6.764;2022-09-27T08:18:02;3.37;;;1.40;;
11837;SDS011;5978;51.020;6.764;2022-09-27T08:20:28;2.40;;;1.37;;
11837;SDS011;5978;51.020;6.764;2022-09-27T08:22:54;4.13;;;1.27;;
11837;SDS011;5978;51.020;6.764;2022-09-27T08:25:20;3.60;;;1.50;;
11837;SDS011;5978;51.020;6.764;2022-09-27T08:27:57;2.90;;;1.10;;
11837;SDS011;5978;51.020;6.764;2022-09-27T08:30:24;1.10;;;1.00;;
11837;SDS011;5978;51.020;6.764;2022-09-27T08:32:54;1.90;;;1.33;;
11837;SDS011;5978;51.020;6.764;2022-09-27T08:35:21;1.77;;;1.40;;
11837;SDS011;5978;51.020;6.764;2022-09-27T08:37:56;1.40;;;1.27;;
11837;SDS011;5978;51.020;6.764;2022-09-27T08:40:36;3.00;;;1.23;;
11837;SDS011;5978;51.020;6.764;2022-09-27T08:48:47;2.40;;;2.20;;
11837;SDS011;5978;51.020;6.764;2022-09-27T08:51:17;2.87;;;1.80;;
11837;SDS011;5978;51.020;6.764;2022-09-27T08:53:52;2.13;;;2.03;;
11837;SDS011;5978;51.020;6.764;2022-09-27T08:56:28;1.90;;;1.80;;
11837;SDS011;5978;51.020;6.764;2022-09-27T08:59:09;2.03;;;1.80;;
11837;SDS011;5978;51.020;6.764;2022-09-27T09:01:37;1.70;;;1.60;;
11837;SDS011;5978;51.020;6.764;2022-09-27T09:04:03;3.00;;;2.13;;
11837;SDS011;5978;51.020;6.764;2022-09-27T09:06:35;2.60;;;2.37;;
11837;SDS011;5978;51.020;6.764;2022-09-27T09:12:47;2.43;;;2.23;;
11837;SDS011;5978;51.020;6.764;2022-09-27T09:15:12;3.23;;;3.00;;
11837;SDS011;5978;51.020;6.764;2022-09-27T09:29:03;2.13;;;2.00;;
11837;SDS011;5978;51.020;6.764;2022-09-27T09:31:41;1.73;;;1.63;;
11837;SDS011;5978;51.020;6.764;2022-09-27T09:34:24;3.10;;;2.20;;
11837;SDS011;5978;51.020;6.764;2022-09-27T09:40:18;3.00;;;1.80;;
11837;SDS011;5978;51.020;6.764;2022-09-27T09:42:59;1.83;;;1.57;;
11837;SDS011;5978;51.020;6.764;2022-09-27T09:45:34;5.50;;;2.20;;
11837;SDS011;5978;51.020;6.764;2022-09-27T09:48:07;4.83;;;1.77;;
11837;SDS011;5978;51.020;6.764;2022-09-27T09:50:57;2.70;;;2.50;;
11837;SDS011;5978;51.020;6.764;2022-09-27T09:55:58;3.97;;;1.93;;
11837;SDS011;5978;51.020;6.764;2022-09-27T10:01:28;5.20;;;2.40;;
11837;SDS011;5978;51.020;6.764;2022-09-27T10:03:58;2.20;;;2.00;;
11837;SDS011;5978;51.020;6.764;2022-09-27T10:06:24;4.10;;;2.67;;
11837;SDS011;5978;51.020;6.764;2022-09-27T10:08:52;3.30;;;2.53;;
11837;SDS011;5978;51.020;6.764;2022-09-27T10:11:28;6.23;;;2.70;;
11837;SDS011;5978;51.020;6.764;2022-09-27T10:14:01;4.30;;;2.80;;
11837;SDS011;5978;51.020;6.764;2022-09-27T10:16:27;5.63;;;2.87;;
11837;SDS011;5978;51.020;6.764;2022-09-27T10:18:54;5.00;;;2.30;;
11837;SDS011;5978;51.020;6.764;2022-09-27T10:21:24;3.20;;;2.40;;
11837;SDS011;5978;51.020;6.764;2022-09-27T10:24:01;7.73;;;2.70;;
11837;SDS011;5978;51.020;6.764;2022-09-27T10:26:35;4.10;;;3.07;;
11837;SDS011;5978;51.020;6.764;2022-09-27T10:31:48;4.23;;;2.70;;
11837;SDS011;5978;51.020;6.764;2022-09-27T10:34:19;5.57;;;4.37;;
11837;SDS011;5978;51.020;6.764;2022-09-27T10:37:00;7.03;;;4.07;;
11837;SDS011;5978;51.020;6.764;2022-09-27T10:39:31;7.53;;;3.80;;
11837;SDS011;5978;51.020;6.764;2022-09-27T10:41:57;7.90;;;3.60;;
11837;SDS011;5978;51.020;6.764;2022-09-27T10:47:38;4.27;;;3.87;;
11837;SDS011;5978;51.020;6.764;2022-09-27T10:49:47;6.20;;;5.10;;
11837;SDS011;5978;51.020;6.764;2022-09-27T10:52:20;4.83;;;4.40;;
11837;SDS011;5978;51.020;6.764;2022-09-27T10:54:55;10.40;;;5.20;;
11837;SDS011;5978;51.020;6.764;2022-09-27T10:57:23;9.80;;;5.47;;
11837;SDS011;5978;51.020;6.764;2022-09-27T11:00:04;7.13;;;6.20;;
11837;SDS011;5978;51.020;6.764;2022-09-27T11:02:41;8.40;;;5.87;;
11837;SDS011;5978;51.020;6.764;2022-09-27T11:05:11;8.73;;;5.17;;
11837;SDS011;5978;51.020;6.764;2022-09-27T11:07:56;8.43;;;6.57;;
11837;SDS011;5978;51.020;6.764;2022-09-27T11:10:24;5.87;;;5.10;;
11837;SDS011;5978;51.020;6.764;2022-09-27T11:13:15;6.53;;;5.30;;
11837;SDS011;5978;51.020;6.764;2022-09-27T11:18:39;5.27;;;4.73;;
11837;SDS011;5978;51.020;6.764;2022-09-27T11:37:59;8.10;;;5.30;;
11837;SDS011;5978;51.020;6.764;2022-09-27T11:54:30;4.93;;;4.43;;
11837;SDS011;5978;51.020;6.764;2022-09-27T12:10:47;3.83;;;3.40;;
11837;SDS011;5978;51.020;6.764;2022-09-27T12:13:17;5.00;;;3.30;;
11837;SDS011;5978;51.020;6.764;2022-09-27T12:15:50;7.33;;;3.60;;
11837;SDS011;5978;51.020;6.764;2022-09-27T12:18:20;6.43;;;3.53;;
11837;SDS011;5978;51.020;6.764;2022-09-27T12:20:56;4.23;;;3.60;;
11837;SDS011;5978;51.020;6.764;2022-09-27T12:23:48;4.20;;;3.20;;
11837;SDS011;5978;51.020;6.764;2022-09-27T12:26:33;3.70;;;2.80;;
11837;SDS011;5978;51.020;6.764;2022-09-27T12:31:56;3.30;;;2.37;;
11837;SDS011;5978;51.020;6.764;2022-09-27T12:34:41;3.67;;;2.57;;
11837;SDS011;5978;51.020;6.764;2022-09-27T12:37:18;1.87;;;1.67;;
11837;SDS011;5978;51.020;6.764;2022-09-27T12:39:53;1.67;;;1.20;;
11837;SDS011;5978;51.020;6.764;2022-09-27T12:42:31;2.23;;;1.10;;
11837;SDS011;5978;51.020;6.764;2022-09-27T12:45:03;1.00;;;0.90;;
11837;SDS011;5978;51.020;6.764;2022-09-27T12:47:49;1.10;;;1.00;;
11837;SDS011;5978;51.020;6.764;2022-09-27T12:50:41;1.80;;;0.97;;
11837;SDS011;5978;51.020;6.764;2022-09-27T12:53:14;1.23;;;1.10;;
11837;SDS011;5978;51.020;6.764;2022-09-27T13:12:36;2.03;;;1.67;;
11837;SDS011;5978;51.020;6.764;2022-09-27T13:17:54;2.57;;;2.13;;
11837;SDS011;5978;51.020;6.764;2022-09-27T13:23:01;1.93;;;1.83;;
11837;SDS011;5978;51.020;6.764;2022-09-27T13:31:00;1.53;;;1.00;;
11837;SDS011;5978;51.020;6.764;2022-09-27T13:41:21;1.10;;;1.00;;
11837;SDS011;5978;51.020;6.764;2022-09-27T13:43:57;1.07;;;0.90;;
11837;SDS011;5978;51.020;6.764;2022-09-27T13:46:57;1.50;;;1.03;;
11837;SDS011;5978;51.020;6.764;2022-09-27T13:54:53;1.77;;;1.37;;
11837;SDS011;5978;51.020;6.764;2022-09-27T13:57:39;2.27;;;1.17;;
11837;SDS011;5978;51.020;6.764;2022-09-27T14:00:11;2.93;;;1.60;;
11837;SDS011;5978;51.020;6.764;2022-09-27T14:02:53;4.50;;;1.57;;
11837;SDS011;5978;51.020;6.764;2022-09-27T14:05:29;1.87;;;1.40;;
11837;SDS011;5978;51.020;6.764;2022-09-27T14:08:02;1.83;;;1.20;;
11837;SDS011;5978;51.020;6.764;2022-09-27T14:10:30;1.83;;;1.10;;
11837;SDS011;5978;51.020;6.764;2022-09-27T14:12:57;1.70;;;1.33;;
11837;SDS011;5978;51.020;6.764;2022-09-27T14:15:26;1.53;;;1.00;;
11837;SDS011;5978;51.020;6.764;2022-09-27T14:17:53;2.20;;;1.20;;
11837;SDS011;5978;51.020;6.764;2022-09-27T14:20:30;1.00;;;0.83;;
11837;SDS011;5978;51.020;6.764;2022-09-27T14:22:59;2.40;;;1.00;;
11837;SDS011;5978;51.020;6.764;2022-09-27T14:25:26;2.73;;;1.23;;
11837;SDS011;5978;51.020;6.764;2022-09-27T14:27:52;3.37;;;1.40;;
11837;SDS011;5978;51.020;6.764;2022-09-27T14:30:19;3.43;;;1.60;;
11837;SDS011;5978;51.020;6.764;2022-09-27T14:32:51;2.50;;;1.33;;
11837;SDS011;5978;51.020;6.764;2022-09-27T14:38:06;1.73;;;1.17;;
11837;SDS011;5978;51.020;6.764;2022-09-27T14:40:54;5.80;;;1.20;;
11837;SDS011;5978;51.020;6.764;2022-09-27T14:43:23;3.83;;;1.20;;
11837;SDS011;5978;51.020;6.764;2022-09-27T14:45:51;2.47;;;1.07;;
11837;SDS011;5978;51.020;6.764;2022-09-27T14:48:25;2.07;;;1.00;;
11837;SDS011;5978;51.020;6.764;2022-09-27T14:51:00;1.37;;;1.10;;
11837;SDS011;5978;51.020;6.764;2022-09-27T14:53:40;3.83;;;1.53;;
11837;SDS011;5978;51.020;6.764;2022-09-27T14:56:13;4.03;;;1.70;;
11837;SDS011;5978;51.020;6.764;2022-09-27T14:58:44;6.00;;;1.73;;
11837;SDS011;5978;51.020;6.764;2022-09-27T15:01:17;3.10;;;1.80;;
11837;SDS011;5978;51.020;6.764;2022-09-27T15:03:44;3.70;;;2.00;;
11837;SDS011;5978;51.020;6.764;2022-09-27T15:06:13;2.50;;;1.53;;
11837;SDS011;5978;51.020;6.764;2022-09-27T15:08:40;3.00;;;1.70;;
11837;SDS011;5978;51.020;6.764;2022-09-27T15:11:08;3.43;;;1.67;;
11837;SDS011;5978;51.020;6.764;2022-09-27T15:13:35;2.90;;;1.57;;
11837;SDS011;5978;51.020;6.764;2022-09-27T15:16:06;2.17;;;1.57;;
11837;SDS011;5978;51.020;6.764;2022-09-27T15:21:06;2.50;;;1.40;;
11837;SDS011;5978;51.020;6.764;2022-09-27T15:23:40;2.10;;;1.07;;
11837;SDS011;5978;51.020;6.764;2022-09-27T15:26:12;2.63;;;1.30;;
11837;SDS011;5978;51.020;6.764;2022-09-27T15:28:50;2.60;;;1.50;;
11837;SDS011;5978;51.020;6.764;2022-09-27T15:31:17;2.47;;;1.50;;
11837;SDS011;5978;51.020;6.764;2022-09-27T15:33:54;1.73;;;1.27;;
11837;SDS011;5978;51.020;6.764;2022-09-27T15:39:15;1.43;;;1.33;;
11837;SDS011;5978;51.020;6.764;2022-09-27T15:42:02;1.33;;;1.23;;
11837;SDS011;5978;51.020;6.764;2022-09-27T15:44:36;1.53;;;1.43;;
11837;SDS011;5978;51.020;6.764;2022-09-27T15:47:53;6.93;;;1.60;;
11837;SDS011;5978;51.020;6.764;2022-09-27T15:52:49;2.70;;;0.90;;
11837;SDS011;5978;51.020;6.764;2022-09-27T15:55:22;2.10;;;1.20;;
11837;SDS011;5978;51.020;6.764;2022-09-27T15:57:54;2.40;;;1.60;;
11837;SDS011;5978;51.020;6.764;2022-09-27T16:00:27;3.73;;;1.33;;
11837;SDS011;5978;51.020;6.764;2022-09-27T16:02:53;1.90;;;1.60;;
11837;SDS011;5978;51.020;6.764;2022-09-27T16:05:20;1.47;;;1.33;;
11837;SDS011;5978;51.020;6.764;2022-09-27T16:07:51;1.57;;;1.27;;
11837;SDS011;5978;51.020;6.764;2022-09-27T16:12:44;2.43;;;1.77;;
11837;SDS011;5978;51.020;6.764;2022-09-27T16:15:10;1.37;;;1.23;;
11837;SDS011;5978;51.020;6.764;2022-09-27T16:17:37;3.67;;;1.53;;
11837;SDS011;5978;51.020;6.764;2022-09-27T16:20:04;1.73;;;1.10;;
11837;SDS011;5978;51.020;6.764;2022-09-27T16:22:30;2.57;;;1.30;;
11837;SDS011;5978;51.020;6.764;2022-09-27T16:24:56;2.93;;;1.30;;
11837;SDS011;5978;51.020;6.764;2022-09-27T16:27:24;6.10;;;1.80;;
11837;SDS011;5978;51.020;6.764;2022-09-27T16:29:51;3.83;;;1.37;;
11837;SDS011;5978;51.020;6.764;2022-09-27T16:32:21;1.60;;;1.17;;
11837;SDS011;5978;51.020;6.764;2022-09-27T16:34:47;2.20;;;1.57;;
11837;SDS011;5978;51.020;6.764;2022-09-27T16:37:13;2.90;;;2.10;;
11837;SDS011;5978;51.020;6.764;2022-09-27T16:39:39;3.73;;;1.83;;
11837;SDS011;5978;51.020;6.764;2022-09-27T16:42:05;3.13;;;2.30;;
11837;SDS011;5978;51.020;6.764;2022-09-27T16:44:31;5.63;;;2.63;;
11837;SDS011;5978;51.020;6.764;2022-09-27T16:47:03;4.10;;;2.93;;
11837;SDS011;5978;51.020;6.764;2022-09-27T16:49:30;2.97;;;2.43;;
11837;SDS011;5978;51.020;6.764;2022-09-27T16:52:14;4.40;;;2.67;;
11837;SDS011;5978;51.020;6.764;2022-09-27T16:54:40;4.80;;;2.40;;
11837;SDS011;5978;51.020;6.764;2022-09-27T16:57:07;4.30;;;2.30;;
11837;SDS011;5978;51.020;6.764;2022-09-27T16:59:33;2.63;;;2.10;;
11837;SDS011;5978;51.020;6.764;2022-09-27T17:01:59;2.53;;;2.30;;
11837;SDS011;5978;51.020;6.764;2022-09-27T17:04:25;5.87;;;2.57;;
11837;SDS011;5978;51.020;6.764;2022-09-27T17:06:52;3.00;;;2.63;;
11837;SDS011;5978;51.020;6.764;2022-09-27T17:09:19;3.00;;;2.70;;
11837;SDS011;5978;51.020;6.764;2022-09-27T17:11:45;3.27;;;2.47;;
11837;SDS011;5978;51.020;6.764;2022-09-27T17:14:11;1.93;;;1.83;;
11837;SDS011;5978;51.020;6.764;2022-09-27T17:16:41;7.50;;;2.50;;
11837;SDS011;5978;51.020;6.764;2022-09-27T17:19:07;5.10;;;2.60;;
11837;SDS011;5978;51.020;6.764;2022-09-27T17:21:34;5.20;;;2.23;;
11837;SDS011;5978;51.020;6.764;2022-09-27T17:24:00;3.77;;;3.03;;
11837;SDS011;5978;51.020;6.764;2022-09-27T17:26:26;4.20;;;2.20;;
11837;SDS011;5978;51.020;6.764;2022-09-27T17:28:55;4.97;;;2.77;;
11837;SDS011;5978;51.020;6.764;2022-09-27T17:31:21;6.97;;;2.60;;
11837;SDS011;5978;51.020;6.764;2022-09-27T17:33:47;6.50;;;4.03;;
11837;SDS011;5978;51.020;6.764;2022-09-27T17:36:19;10.27;;;3.87;;
11837;SDS011;5978;51.020;6.764;2022-09-27T17:38:46;4.27;;;3.57;;
11837;SDS011;5978;51.020;6.764;2022-09-27T17:41:14;2.60;;;2.40;;
11837;SDS011;5978;51.020;6.764;2022-09-27T17:43:42;4.30;;;3.10;;
11837;SDS011;5978;51.020;6.764;2022-09-27T17:46:14;4.40;;;4.00;;
11837;SDS011;5978;51.020;6.764;2022-09-27T17:48:45;6.33;;;3.07;;
11837;SDS011;5978;51.020;6.764;2022-09-27T17:51:29;6.47;;;3.43;;
11837;SDS011;5978;51.020;6.764;2022-09-27T17:53:55;7.60;;;5.57;;
11837;SDS011;5978;51.020;6.764;2022-09-27T17:56:21;9.10;;;5.30;;
11837;SDS011;5978;51.020;6.764;2022-09-27T17:58:47;4.33;;;3.93;;
11837;SDS011;5978;51.020;6.764;2022-09-27T18:01:15;4.23;;;3.70;;
11837;SDS011;5978;51.020;6.764;2022-09-27T18:03:42;4.50;;;4.10;;
11837;SDS011;5978;51.020;6.764;2022-09-27T18:06:09;4.87;;;4.37;;
11837;SDS011;5978;51.020;6.764;2022-09-27T18:08:37;6.57;;;4.97;;
11837;SDS011;5978;51.020;6.764;2022-09-27T18:11:04;6.67;;;4.90;;
11837;SDS011;5978;51.020;6.764;2022-09-27T18:13:31;4.50;;;4.10;;
11837;SDS011;5978;51.020;6.764;2022-09-27T18:16:04;6.13;;;3.60;;
11837;SDS011;5978;51.020;6.764;2022-09-27T18:18:32;5.90;;;4.40;;
11837;SDS011;5978;51.020;6.764;2022-09-27T18:21:03;9.43;;;5.33;;
11837;SDS011;5978;51.020;6.764;2022-09-27T18:23:31;6.20;;;4.97;;
11837;SDS011;5978;51.020;6.764;2022-09-27T18:25:57;5.33;;;4.70;;
11837;SDS011;5978;51.020;6.764;2022-09-27T18:28:24;5.40;;;4.40;;
11837;SDS011;5978;51.020;6.764;2022-09-27T18:30:59;6.17;;;4.20;;
11837;SDS011;5978;51.020;6.764;2022-09-27T18:33:27;6.40;;;5.00;;